createdAt,value
2023-03-10T00:00:35.340Z,4.10
2023-03-10T00:03:01.912Z,4.90
2023-03-10T00:05:28.444Z,5.20
2023-03-10T00:07:55.064Z,6.38
2023-03-10T00:10:21.849Z,6.32
2023-03-10T00:12:48.356Z,4.45
2023-03-10T00:15:14.961Z,8.40
2023-03-10T00:17:41.787Z,8.20
2023-03-10T00:20:12.006Z,6.20
2023-03-10T00:22:44.138Z,4.03
2023-03-10T00:25:10.969Z,6.78
2023-03-10T00:27:37.551Z,5.35
2023-03-10T00:30:05.008Z,4.75
2023-03-10T00:32:31.701Z,6.32
2023-03-10T00:34:58.296Z,8.20
2023-03-10T00:37:24.854Z,7.50
2023-03-10T00:39:52.685Z,9.18
2023-03-10T00:42:19.658Z,4.57
2023-03-10T00:44:46.749Z,5.88
2023-03-10T00:47:13.355Z,6.25
2023-03-10T00:49:39.967Z,11.02
2023-03-10T00:52:06.631Z,8.82
2023-03-10T00:54:33.168Z,6.30
2023-03-10T00:56:59.660Z,8.52
2023-03-10T00:59:26.246Z,7.18
2023-03-10T01:01:52.842Z,6.05
2023-03-10T01:04:20.016Z,9.02
2023-03-10T01:06:47.687Z,5.30
2023-03-10T01:09:14.538Z,5.88
2023-03-10T01:11:41.142Z,9.85
2023-03-10T01:14:11.648Z,4.93
2023-03-10T01:16:38.268Z,8.20
2023-03-10T01:19:04.869Z,8.23
2023-03-10T01:21:34.671Z,4.57
2023-03-10T01:24:02.312Z,5.57
2023-03-10T01:26:30.105Z,2.67
2023-03-10T01:28:56.744Z,6.13
2023-03-10T01:31:23.698Z,6.55
2023-03-10T01:33:50.226Z,8.68
2023-03-10T01:36:20.075Z,8.40
2023-03-10T01:38:47.282Z,13.43
2023-03-10T01:41:14.863Z,10.35
2023-03-10T01:43:43.421Z,8.13
2023-03-10T01:46:31.797Z,10.18
2023-03-10T01:49:12.406Z,6.63
2023-03-10T01:51:42.829Z,9.90
2023-03-10T01:54:13.965Z,8.40
2023-03-10T01:56:41.472Z,7.50
2023-03-10T01:59:09.357Z,4.13
2023-03-10T02:01:36.782Z,8.60
2023-03-10T02:04:13.886Z,7.28
2023-03-10T02:06:42.093Z,12.23
2023-03-10T02:09:09.436Z,10.20
2023-03-10T02:11:37.764Z,6.10
2023-03-10T02:14:06.421Z,9.63
2023-03-10T02:16:33.798Z,11.90
2023-03-10T02:19:00.567Z,10.10
2023-03-10T02:21:30.861Z,8.50
2023-03-10T02:24:19.521Z,10.55
2023-03-10T02:26:54.834Z,13.80
2023-03-10T02:29:30.895Z,9.70
2023-03-10T02:31:58.817Z,14.02
2023-03-10T02:34:26.904Z,9.30
2023-03-10T02:36:53.612Z,8.63
2023-03-10T02:39:20.250Z,11.88
2023-03-10T02:41:46.865Z,8.23
2023-03-10T02:44:18.580Z,10.00
2023-03-10T02:46:45.170Z,16.67
2023-03-10T02:49:12.548Z,13.15
2023-03-10T02:51:45.028Z,15.82
2023-03-10T02:54:12.381Z,13.63
2023-03-10T02:56:39.369Z,14.23
2023-03-10T02:59:06.995Z,12.65
2023-03-10T03:01:34.347Z,9.52
2023-03-10T03:04:01.561Z,18.30
2023-03-10T03:06:28.949Z,15.88
2023-03-10T03:08:56.089Z,13.90
2023-03-10T03:11:22.837Z,15.82
2023-03-10T03:13:49.363Z,15.45
2023-03-10T03:16:15.988Z,14.00
2023-03-10T03:18:42.628Z,16.13
2023-03-10T03:21:15.982Z,16.17
2023-03-10T03:23:43.122Z,14.27
2023-03-10T03:26:21.734Z,15.30
2023-03-10T03:28:48.519Z,14.43
2023-03-10T03:31:23.664Z,13.85
2023-03-10T03:33:50.944Z,10.85
2023-03-10T03:36:18.558Z,10.85
2023-03-10T03:38:45.160Z,13.90
2023-03-10T03:41:11.711Z,13.88
2023-03-10T03:43:38.245Z,13.98
2023-03-10T03:46:05.155Z,17.25
2023-03-10T03:48:31.768Z,11.65
2023-03-10T03:50:58.390Z,9.07
2023-03-10T03:53:25.064Z,11.88
2023-03-10T03:55:51.685Z,11.82
2023-03-10T03:58:19.115Z,11.75
2023-03-10T04:00:46.081Z,12.15
2023-03-10T04:03:12.791Z,13.68
2023-03-10T04:05:40.070Z,9.13
2023-03-10T04:08:07.134Z,14.55
2023-03-10T04:10:33.775Z,10.63
2023-03-10T04:13:00.562Z,13.40
2023-03-10T04:15:27.223Z,9.52
2023-03-10T04:17:53.839Z,12.43
2023-03-10T04:20:20.537Z,14.82
2023-03-10T04:22:47.077Z,13.77
2023-03-10T04:25:13.700Z,10.10
2023-03-10T04:27:40.237Z,11.43
2023-03-10T04:30:07.680Z,10.00
2023-03-10T04:32:34.387Z,12.20
2023-03-10T04:35:01.444Z,7.03
2023-03-10T04:37:28.019Z,11.35
2023-03-10T04:39:54.801Z,9.82
2023-03-10T04:42:21.406Z,10.25
2023-03-10T04:44:47.986Z,12.40
2023-03-10T04:47:14.823Z,11.15
2023-03-10T04:49:41.610Z,11.07
2023-03-10T04:52:08.140Z,6.68
2023-03-10T04:54:34.666Z,18.27
2023-03-10T04:57:01.247Z,12.52
2023-03-10T04:59:27.842Z,11.60
2023-03-10T05:01:54.450Z,15.15
2023-03-10T05:04:21.134Z,13.57
2023-03-10T05:06:51.838Z,8.73
2023-03-10T05:09:18.912Z,12.65
2023-03-10T05:11:45.594Z,8.15
2023-03-10T05:14:12.806Z,8.80
2023-03-10T05:16:39.401Z,9.50
2023-03-10T05:19:05.961Z,9.02
2023-03-10T05:21:32.638Z,13.02
2023-03-10T05:23:59.392Z,14.52
2023-03-10T05:26:26.676Z,13.65
2023-03-10T05:28:53.188Z,20.45
2023-03-10T05:31:26.009Z,22.70
2023-03-10T05:33:53.944Z,13.18
2023-03-10T05:36:20.957Z,17.85
2023-03-10T05:38:47.563Z,12.90
2023-03-10T05:41:14.651Z,14.15
2023-03-10T05:43:41.587Z,25.55
2023-03-10T05:46:08.622Z,10.40
2023-03-10T05:48:35.209Z,10.25
2023-03-10T05:51:07.807Z,8.25
2023-03-10T05:53:35.907Z,5.03
2023-03-10T05:56:08.087Z,7.70
2023-03-10T05:58:35.304Z,8.38
2023-03-10T06:01:02.343Z,8.73
2023-03-10T06:03:30.144Z,7.90
2023-03-10T06:05:57.809Z,9.32
2023-03-10T06:08:25.425Z,10.43
2023-03-10T06:10:52.067Z,8.60
2023-03-10T06:13:20.550Z,12.88
2023-03-10T06:15:55.411Z,9.82
2023-03-10T06:18:22.585Z,6.63
2023-03-10T06:20:49.838Z,15.05
2023-03-10T06:23:17.957Z,11.18
2023-03-10T06:25:45.000Z,9.10
2023-03-10T06:28:12.550Z,17.60
2023-03-10T06:30:39.127Z,13.63
2023-03-10T06:33:05.713Z,10.77
2023-03-10T06:35:32.426Z,10.80
2023-03-10T06:37:58.992Z,13.63
2023-03-10T06:40:25.632Z,9.68
2023-03-10T06:42:52.155Z,8.57
2023-03-10T06:45:18.768Z,9.32
2023-03-10T06:47:45.654Z,21.95
2023-03-10T06:50:13.522Z,13.80
2023-03-10T06:52:40.199Z,11.27
2023-03-10T06:55:07.167Z,12.80
2023-03-10T06:57:34.255Z,9.25
2023-03-10T07:00:00.855Z,13.85
2023-03-10T07:02:27.568Z,10.27
2023-03-10T07:04:54.383Z,11.65
2023-03-10T07:07:21.048Z,17.02
2023-03-10T07:09:47.626Z,13.15
2023-03-10T07:12:14.166Z,15.25
2023-03-10T07:14:40.719Z,17.15
2023-03-10T07:17:07.315Z,13.45
2023-03-10T07:19:33.964Z,17.20
2023-03-10T07:22:00.542Z,15.52
2023-03-10T07:24:27.179Z,12.25
2023-03-10T07:26:54.167Z,13.43
2023-03-10T07:29:20.731Z,10.43
2023-03-10T07:31:47.276Z,10.50
2023-03-10T07:34:14.129Z,11.18
2023-03-10T07:36:40.671Z,11.00
2023-03-10T07:39:07.338Z,14.95
2023-03-10T07:41:33.914Z,8.02
2023-03-10T07:44:00.600Z,11.02
2023-03-10T07:46:27.369Z,6.68
2023-03-10T07:48:55.888Z,7.60
2023-03-10T07:51:22.599Z,8.85
2023-03-10T07:53:49.141Z,8.48
2023-03-10T07:56:15.853Z,6.72
2023-03-10T07:58:42.640Z,7.32
2023-03-10T08:01:15.140Z,5.88
2023-03-10T08:03:41.861Z,7.55
2023-03-10T08:06:08.667Z,6.93
2023-03-10T08:08:35.631Z,6.32
2023-03-10T08:11:09.641Z,5.47
2023-03-10T08:13:38.310Z,5.32
2023-03-10T08:16:05.860Z,2.55
2023-03-10T08:18:32.579Z,3.25
2023-03-10T08:20:59.912Z,3.13
2023-03-10T08:23:26.479Z,2.40
2023-03-10T08:25:53.000Z,4.22
2023-03-10T08:28:19.671Z,8.85
2023-03-10T08:31:03.084Z,13.20
2023-03-10T08:33:31.151Z,6.47
2023-03-10T08:36:05.384Z,9.82
2023-03-10T08:38:32.543Z,10.65
2023-03-10T08:41:15.856Z,15.50
2023-03-10T08:43:42.925Z,14.20
2023-03-10T08:46:10.504Z,9.77
2023-03-10T08:48:37.795Z,10.98
2023-03-10T08:51:05.516Z,10.43
2023-03-10T08:53:34.714Z,9.60
2023-03-10T08:56:01.291Z,9.07
2023-03-10T08:58:27.892Z,7.22
2023-03-10T09:00:54.395Z,10.88
2023-03-10T09:03:20.991Z,7.75
2023-03-10T09:05:47.625Z,10.23
2023-03-10T09:08:14.480Z,6.50
2023-03-10T09:10:44.623Z,4.38
2023-03-10T09:13:14.297Z,3.30
2023-03-10T09:15:42.068Z,3.65
2023-03-10T09:18:09.339Z,5.57
2023-03-10T09:20:36.863Z,6.93
2023-03-10T09:23:03.992Z,6.47
2023-03-10T09:25:30.772Z,5.80
2023-03-10T09:27:58.220Z,3.78
2023-03-10T09:30:25.295Z,3.78
2023-03-10T09:32:52.242Z,5.15
2023-03-10T09:35:19.968Z,4.63
2023-03-10T09:37:46.521Z,3.15
2023-03-10T09:40:17.932Z,3.20
2023-03-10T09:42:48.756Z,3.95
2023-03-10T09:45:35.404Z,4.20
2023-03-10T09:48:20.028Z,4.78
2023-03-10T09:50:52.563Z,3.38
2023-03-10T09:53:38.985Z,2.08
2023-03-10T09:56:29.886Z,3.85
2023-03-10T09:59:02.328Z,3.20
2023-03-10T10:01:32.545Z,2.92
2023-03-10T10:04:13.055Z,0.73
2023-03-10T10:06:43.268Z,0.40
2023-03-10T10:09:24.238Z,0.80
2023-03-10T10:11:50.832Z,1.05
2023-03-10T10:14:31.853Z,1.05
2023-03-10T10:17:20.283Z,2.13
2023-03-10T10:19:47.921Z,1.00
2023-03-10T10:22:32.266Z,0.80
2023-03-10T10:25:14.161Z,1.50
2023-03-10T10:27:42.676Z,0.50
2023-03-10T10:30:35.414Z,0.50
2023-03-10T10:33:13.002Z,0.88
2023-03-10T10:35:46.402Z,2.95
2023-03-10T10:38:15.597Z,2.42
2023-03-10T10:41:07.684Z,2.15
2023-03-10T10:43:42.588Z,1.55
2023-03-10T10:46:09.989Z,2.22
2023-03-10T10:48:46.508Z,1.88
2023-03-10T10:51:28.938Z,0.47
2023-03-10T10:54:01.123Z,0.30
2023-03-10T10:56:29.093Z,5.07
2023-03-10T10:59:04.795Z,1.30
2023-03-10T11:01:51.945Z,1.35
2023-03-10T11:04:19.378Z,0.98
2023-03-10T11:06:46.602Z,1.17
2023-03-10T11:09:21.237Z,1.50
2023-03-10T11:11:55.954Z,0.40
2023-03-10T11:14:49.866Z,1.25
2023-03-10T11:17:16.450Z,0.40
2023-03-10T11:20:00.756Z,0.73
2023-03-10T11:22:52.050Z,0.95
2023-03-10T11:25:37.558Z,1.83
2023-03-10T11:28:16.392Z,0.50
2023-03-10T11:31:14.288Z,0.68
2023-03-10T11:34:08.971Z,0.75
2023-03-10T11:36:55.798Z,1.33
2023-03-10T11:39:45.645Z,1.73
2023-03-10T11:42:21.345Z,0.85
2023-03-10T11:44:54.619Z,1.42
2023-03-10T11:47:33.520Z,1.95
2023-03-10T11:50:18.633Z,0.38
2023-03-10T11:52:46.496Z,4.40
2023-03-10T11:55:21.742Z,0.63
2023-03-10T11:57:54.412Z,0.40
2023-03-10T12:00:43.801Z,0.55
2023-03-10T12:03:19.685Z,0.82
2023-03-10T12:05:52.448Z,1.45
2023-03-10T12:08:23.568Z,0.63
2023-03-10T12:10:51.599Z,2.03
2023-03-10T12:13:23.693Z,0.63
2023-03-10T12:15:54.625Z,1.52
2023-03-10T12:18:21.298Z,0.57
2023-03-10T12:21:28.302Z,1.67
2023-03-10T12:23:57.636Z,1.23
2023-03-10T12:26:39.404Z,1.27
2023-03-10T12:29:21.236Z,1.38
2023-03-10T12:31:51.575Z,3.40
2023-03-10T12:34:28.093Z,0.95
2023-03-10T12:37:06.787Z,1.42
2023-03-10T12:39:42.788Z,1.70
2023-03-10T12:42:32.536Z,0.77
2023-03-10T12:45:21.423Z,1.45
2023-03-10T12:47:57.541Z,1.25
2023-03-10T12:50:41.071Z,2.58
2023-03-10T12:53:30.473Z,1.63
2023-03-10T12:56:12.271Z,1.70
2023-03-10T12:58:46.078Z,2.00
2023-03-10T13:01:17.251Z,0.63
2023-03-10T13:03:48.570Z,1.10
2023-03-10T13:06:15.130Z,0.93
2023-03-10T13:09:10.615Z,0.80
2023-03-10T13:11:42.936Z,4.32
2023-03-10T13:14:19.981Z,2.30
2023-03-10T13:16:58.483Z,3.60
2023-03-10T13:19:27.616Z,5.28
2023-03-10T13:21:55.116Z,5.68
2023-03-10T13:24:23.848Z,3.08
2023-03-10T13:27:05.109Z,3.80
2023-03-10T13:29:31.789Z,4.27
2023-03-10T13:31:58.452Z,2.47
2023-03-10T13:34:28.919Z,4.43
2023-03-10T13:37:06.415Z,6.15
2023-03-10T13:39:33.524Z,7.30
2023-03-10T13:42:02.233Z,3.97
2023-03-10T13:44:34.053Z,3.60
2023-03-10T13:47:04.474Z,3.33
2023-03-10T13:49:35.240Z,6.85
2023-03-10T13:52:08.129Z,6.78
2023-03-10T13:54:36.504Z,3.20
2023-03-10T13:57:22.007Z,3.60
2023-03-10T13:59:49.950Z,5.10
2023-03-10T14:02:40.819Z,5.63
2023-03-10T14:05:28.255Z,4.68
2023-03-10T14:08:01.267Z,8.02
2023-03-10T14:10:27.770Z,5.63
2023-03-10T14:12:54.875Z,5.82
2023-03-10T14:15:32.498Z,6.85
2023-03-10T14:18:08.268Z,10.30
2023-03-10T14:20:43.431Z,7.68
2023-03-10T14:23:19.133Z,5.03
2023-03-10T14:25:46.877Z,7.13
2023-03-10T14:28:19.036Z,7.60
2023-03-10T14:30:45.609Z,11.32
2023-03-10T14:33:14.350Z,8.48
2023-03-10T14:35:41.756Z,9.93
2023-03-10T14:38:09.041Z,10.23
2023-03-10T14:40:41.319Z,10.70
2023-03-10T14:43:15.887Z,8.93
2023-03-10T14:45:44.452Z,10.75
2023-03-10T14:48:18.221Z,7.93
2023-03-10T14:50:45.917Z,8.95
2023-03-10T14:53:15.476Z,12.25
2023-03-10T14:55:43.577Z,10.07
2023-03-10T14:58:16.611Z,11.98
2023-03-10T15:00:43.351Z,7.95
2023-03-10T15:03:11.717Z,11.05
2023-03-10T15:05:48.143Z,12.52
2023-03-10T15:08:15.781Z,7.97
2023-03-10T15:10:46.657Z,7.15
2023-03-10T15:13:13.727Z,7.40
2023-03-10T15:15:42.658Z,11.60
2023-03-10T15:18:14.696Z,8.75
2023-03-10T15:23:08.029Z,3.85
2023-03-10T15:25:34.776Z,6.53
2023-03-10T15:28:01.507Z,2.80
2023-03-10T15:30:36.286Z,3.53
2023-03-10T15:33:04.194Z,2.72
2023-03-10T15:35:31.007Z,3.25
2023-03-10T15:37:58.266Z,3.97
2023-03-10T15:40:27.334Z,4.55
2023-03-10T15:42:57.521Z,4.32
2023-03-10T15:45:25.722Z,5.07
2023-03-10T15:47:52.659Z,2.90
2023-03-10T15:50:20.870Z,6.38
2023-03-10T15:52:49.545Z,6.13
2023-03-10T15:55:16.840Z,4.18
2023-03-10T15:57:44.838Z,3.40
2023-03-10T16:00:12.716Z,5.47
2023-03-10T16:02:39.510Z,6.20
2023-03-10T16:05:06.411Z,3.40
2023-03-10T16:07:35.643Z,3.42
2023-03-10T16:10:02.200Z,2.03
2023-03-10T16:12:28.871Z,1.15
2023-03-10T16:14:55.877Z,1.80
2023-03-10T16:17:23.509Z,5.07
2023-03-10T16:19:50.418Z,1.42
2023-03-10T16:22:17.331Z,4.30
2023-03-10T16:24:43.937Z,3.83
2023-03-10T16:27:10.622Z,4.15
2023-03-10T16:29:40.104Z,3.33
2023-03-10T16:32:08.968Z,3.80
2023-03-10T16:34:36.246Z,1.48
2023-03-10T16:37:02.966Z,1.52
2023-03-10T16:39:33.037Z,1.55
2023-03-10T16:41:59.802Z,1.73
2023-03-10T16:44:26.518Z,1.33
2023-03-10T16:46:53.331Z,1.45
2023-03-10T16:49:19.948Z,2.05
2023-03-10T16:51:47.538Z,1.20
2023-03-10T16:54:19.672Z,1.50
2023-03-10T16:56:51.534Z,2.15
2023-03-10T16:59:20.654Z,2.42
2023-03-10T17:01:48.041Z,1.58
2023-03-10T17:04:14.983Z,1.75
2023-03-10T17:06:42.075Z,0.55
2023-03-10T17:09:09.563Z,0.60
2023-03-10T17:11:39.686Z,0.85
2023-03-10T17:14:11.218Z,1.40
2023-03-10T17:16:38.637Z,1.65
2023-03-10T17:19:13.144Z,1.92
2023-03-10T17:21:43.821Z,0.95
2023-03-10T17:24:10.727Z,2.92
2023-03-10T17:26:37.376Z,2.45
2023-03-10T17:29:04.684Z,1.95
2023-03-10T17:31:32.045Z,3.38
2023-03-10T17:34:04.773Z,2.22
2023-03-10T17:36:31.725Z,0.90
2023-03-10T17:39:00.749Z,1.10
2023-03-10T17:41:29.139Z,2.00
2023-03-10T17:43:56.772Z,1.20
2023-03-10T17:46:26.905Z,0.70
2023-03-10T17:48:54.045Z,1.30
2023-03-10T17:51:25.927Z,1.42
2023-03-10T17:53:53.540Z,1.42
2023-03-10T17:56:21.974Z,0.90
2023-03-10T17:58:49.574Z,1.48
2023-03-10T18:01:19.796Z,2.22
2023-03-10T18:03:48.155Z,1.83
2023-03-10T18:06:22.368Z,1.77
2023-03-10T18:08:50.215Z,1.55
2023-03-10T18:11:18.821Z,1.75
2023-03-10T18:13:45.492Z,2.67
2023-03-10T18:16:20.166Z,1.67
2023-03-10T18:18:47.209Z,1.70
2023-03-10T18:21:15.157Z,2.35
2023-03-10T18:23:42.062Z,1.83
2023-03-10T18:26:10.681Z,1.58
2023-03-10T18:28:38.420Z,2.33
2023-03-10T18:31:14.174Z,2.03
2023-03-10T18:33:40.736Z,3.42
2023-03-10T18:36:07.894Z,3.63
2023-03-10T18:38:34.764Z,2.83
2023-03-10T18:41:03.007Z,1.60
2023-03-10T18:43:32.098Z,1.77
2023-03-10T18:45:58.783Z,1.67
2023-03-10T18:48:28.406Z,3.00
2023-03-10T18:50:56.597Z,3.72
2023-03-10T18:53:25.467Z,2.97
2023-03-10T18:55:52.942Z,3.75
2023-03-10T18:58:19.940Z,2.42
2023-03-10T19:00:46.691Z,2.67
2023-03-10T19:03:13.903Z,2.83
2023-03-10T19:05:41.876Z,3.50
2023-03-10T19:08:10.396Z,3.00
2023-03-10T19:10:39.386Z,3.45
2023-03-10T19:13:07.448Z,1.98
2023-03-10T19:15:34.687Z,2.13
2023-03-10T19:18:01.302Z,3.97
2023-03-10T19:20:27.881Z,2.08
2023-03-10T19:22:54.408Z,3.10
2023-03-10T19:25:23.162Z,3.40
2023-03-10T19:27:49.742Z,2.08
2023-03-10T19:30:20.315Z,2.00
2023-03-10T19:32:48.039Z,6.63
2023-03-10T19:35:16.061Z,1.67
2023-03-10T19:37:46.163Z,1.13
2023-03-10T19:40:15.903Z,3.38
2023-03-10T19:42:43.015Z,1.83
2023-03-10T19:45:18.297Z,1.90
2023-03-10T19:47:46.283Z,1.70
2023-03-10T19:50:16.319Z,3.80
2023-03-10T19:52:51.777Z,3.90
2023-03-10T19:55:23.067Z,1.10
2023-03-10T19:57:51.631Z,1.67
2023-03-10T20:00:24.937Z,3.70
2023-03-10T20:02:55.151Z,1.48
2023-03-10T20:05:22.842Z,2.28
2023-03-10T20:07:49.405Z,5.03
2023-03-10T20:10:17.811Z,2.58
2023-03-10T20:12:47.076Z,3.58
2023-03-10T20:15:13.791Z,2.47
2023-03-10T20:17:40.323Z,4.18
2023-03-10T20:20:12.668Z,2.67
2023-03-10T20:22:42.005Z,2.25
2023-03-10T20:25:10.882Z,3.55
2023-03-10T20:27:38.422Z,2.65
2023-03-10T20:30:10.593Z,2.83
2023-03-10T20:32:37.220Z,3.05
2023-03-10T20:35:05.217Z,5.72
2023-03-10T20:37:33.716Z,3.83
2023-03-10T20:40:00.255Z,3.95
2023-03-10T20:42:26.870Z,3.72
2023-03-10T20:44:53.403Z,6.00
2023-03-10T20:47:19.891Z,3.67
2023-03-10T20:49:47.083Z,7.57
2023-03-10T20:52:13.603Z,4.05
2023-03-10T20:54:40.321Z,8.05
2023-03-10T20:57:08.189Z,4.60
2023-03-10T20:59:36.639Z,5.18
2023-03-10T21:02:05.370Z,4.32
2023-03-10T21:04:32.908Z,4.35
2023-03-10T21:06:59.510Z,3.83
2023-03-10T21:09:26.110Z,4.50
2023-03-10T21:11:52.649Z,4.97
2023-03-10T21:14:19.340Z,5.68
2023-03-10T21:16:46.761Z,10.13
2023-03-10T21:19:13.860Z,2.85
2023-03-10T21:21:40.869Z,3.78
2023-03-10T21:24:07.537Z,9.15
2023-03-10T21:26:34.074Z,4.82
2023-03-10T21:29:00.962Z,7.07
2023-03-10T21:31:27.666Z,4.75
2023-03-10T21:33:54.377Z,10.20
2023-03-10T21:36:23.203Z,5.88
2023-03-10T21:38:51.051Z,6.00
2023-03-10T21:41:20.295Z,11.90
2023-03-10T21:43:46.881Z,7.90
2023-03-10T21:46:13.679Z,6.35
2023-03-10T21:48:40.256Z,6.28
2023-03-10T21:51:09.749Z,7.63
2023-03-10T21:53:36.431Z,5.82
2023-03-10T21:56:03.147Z,5.07
2023-03-10T21:58:29.711Z,6.25
2023-03-10T22:00:56.805Z,7.07
2023-03-10T22:03:23.677Z,5.15
2023-03-10T22:05:50.518Z,7.88
2023-03-10T22:08:17.026Z,5.65
2023-03-10T22:10:43.699Z,5.35
2023-03-10T22:13:10.234Z,9.07
2023-03-10T22:15:36.814Z,4.13
2023-03-10T22:18:03.752Z,4.97
2023-03-10T22:20:30.442Z,9.15
2023-03-10T22:22:57.286Z,5.32
2023-03-10T22:25:24.540Z,5.50
2023-03-10T22:27:54.035Z,4.50
2023-03-10T22:30:22.239Z,4.10
2023-03-10T22:32:49.665Z,5.68
2023-03-10T22:35:16.835Z,4.00
2023-03-10T22:37:43.909Z,3.92
2023-03-10T22:40:16.205Z,5.50
2023-03-10T22:42:44.532Z,5.05
2023-03-10T22:45:19.227Z,10.38
2023-03-10T22:47:46.375Z,5.43
2023-03-10T22:50:16.113Z,5.15
2023-03-10T22:52:42.946Z,7.00
2023-03-10T22:55:13.746Z,15.90
2023-03-10T22:57:40.711Z,5.88
2023-03-10T23:00:11.029Z,5.35
2023-03-10T23:02:37.664Z,4.82
2023-03-10T23:05:04.567Z,4.75
2023-03-10T23:07:31.177Z,4.90
2023-03-10T23:09:57.734Z,6.90
2023-03-10T23:12:24.560Z,9.88
2023-03-10T23:14:51.489Z,8.70
2023-03-10T23:17:18.036Z,9.75
2023-03-10T23:19:44.584Z,8.40
2023-03-10T23:22:11.128Z,6.53
2023-03-10T23:24:37.683Z,8.65
2023-03-10T23:27:04.394Z,8.43
2023-03-10T23:29:30.900Z,8.85
2023-03-10T23:31:57.432Z,10.10
2023-03-10T23:34:24.023Z,7.05
2023-03-10T23:36:50.533Z,6.97
2023-03-10T23:39:17.182Z,11.65
2023-03-10T23:41:43.736Z,5.82
2023-03-10T23:44:10.272Z,10.68
2023-03-10T23:46:36.812Z,11.77
2023-03-10T23:49:03.346Z,9.48
2023-03-10T23:51:30.797Z,7.70
2023-03-10T23:53:57.314Z,7.47
2023-03-10T23:56:23.837Z,8.95
2023-03-10T23:58:50.345Z,7.30
